createdAt,value
2023-02-05T00:01:22.738Z,29.20
2023-02-05T00:03:49.668Z,31.10
2023-02-05T00:06:16.243Z,28.43
2023-02-05T00:08:42.842Z,30.43
2023-02-05T00:11:09.775Z,29.70
2023-02-05T00:13:37.972Z,27.13
2023-02-05T00:16:16.142Z,28.53
2023-02-05T00:18:43.092Z,35.10
2023-02-05T00:21:10.602Z,23.10
2023-02-05T00:23:37.811Z,28.43
2023-02-05T00:26:05.453Z,27.53
2023-02-05T00:28:33.301Z,24.33
2023-02-05T00:31:00.359Z,26.70
2023-02-05T00:33:26.915Z,26.40
2023-02-05T00:35:53.468Z,32.93
2023-02-05T00:38:19.855Z,27.13
2023-02-05T00:40:46.242Z,27.47
2023-02-05T00:43:12.576Z,32.10
2023-02-05T00:45:39.080Z,26.87
2023-02-05T00:48:05.671Z,26.50
2023-02-05T00:50:33.734Z,28.03
2023-02-05T00:53:00.208Z,26.27
2023-02-05T00:55:26.841Z,32.90
2023-02-05T00:57:53.280Z,33.63
2023-02-05T01:00:19.964Z,27.27
2023-02-05T01:02:46.666Z,28.00
2023-02-05T01:05:13.248Z,28.43
2023-02-05T01:07:39.912Z,34.23
2023-02-05T01:10:06.848Z,35.37
2023-02-05T01:12:33.431Z,33.90
2023-02-05T01:15:07.024Z,29.63
2023-02-05T01:17:33.785Z,26.30
2023-02-05T01:20:00.294Z,30.00
2023-02-05T01:22:26.773Z,27.93
2023-02-05T01:24:53.170Z,29.57
2023-02-05T01:27:19.561Z,28.00
2023-02-05T01:29:46.054Z,34.20
2023-02-05T01:32:12.528Z,32.27
2023-02-05T01:34:39.096Z,28.60
2023-02-05T01:37:05.463Z,29.23
2023-02-05T01:39:31.897Z,30.57
2023-02-05T01:41:58.567Z,29.13
2023-02-05T01:44:25.046Z,32.13
2023-02-05T01:46:53.801Z,27.77
2023-02-05T01:49:31.586Z,30.47
2023-02-05T01:52:03.235Z,30.30
2023-02-05T01:54:31.870Z,32.90
2023-02-05T01:57:04.841Z,29.03
2023-02-05T01:59:36.079Z,33.63
2023-02-05T02:02:06.450Z,22.57
2023-02-05T02:04:43.606Z,34.20
2023-02-05T02:07:13.764Z,31.10
2023-02-05T02:09:42.053Z,30.50
2023-02-05T02:12:11.035Z,31.17
2023-02-05T02:14:39.818Z,36.97
2023-02-05T02:17:07.681Z,31.23
2023-02-05T02:19:46.196Z,33.80
2023-02-05T02:22:24.807Z,31.40
2023-02-05T02:25:04.990Z,34.30
2023-02-05T02:27:49.505Z,34.93
2023-02-05T02:30:20.312Z,33.20
2023-02-05T02:32:54.244Z,38.03
2023-02-05T02:35:32.513Z,36.80
2023-02-05T02:38:14.167Z,40.67
2023-02-05T02:40:45.752Z,30.47
2023-02-05T02:43:44.198Z,31.97
2023-02-05T02:46:19.632Z,28.40
2023-02-05T02:48:47.912Z,35.17
2023-02-05T02:51:16.564Z,33.93
2023-02-05T02:53:47.513Z,40.13
2023-02-05T02:56:15.923Z,35.60
2023-02-05T02:58:58.600Z,33.20
2023-02-05T03:01:32.576Z,34.67
2023-02-05T03:04:05.089Z,35.83
2023-02-05T03:06:33.460Z,41.17
2023-02-05T03:09:06.014Z,35.70
2023-02-05T03:11:32.441Z,30.50
2023-02-05T03:13:58.919Z,37.33
2023-02-05T03:16:27.130Z,35.83
2023-02-05T03:18:55.072Z,41.33
2023-02-05T03:21:28.296Z,29.77
2023-02-05T03:23:54.837Z,33.50
2023-02-05T03:26:29.605Z,42.97
2023-02-05T03:28:58.632Z,31.07
2023-02-05T03:31:52.115Z,37.00
2023-02-05T03:34:45.708Z,35.87
2023-02-05T03:37:37.987Z,35.20
2023-02-05T03:40:15.645Z,43.63
2023-02-05T03:42:55.108Z,29.83
2023-02-05T03:45:41.105Z,33.77
2023-02-05T03:48:44.959Z,31.30
2023-02-05T03:51:29.653Z,30.57
2023-02-05T03:54:20.797Z,25.33
2023-02-05T03:56:53.687Z,43.30
2023-02-05T03:59:21.944Z,36.90
2023-02-05T04:01:48.905Z,32.63
2023-02-05T04:04:15.387Z,34.67
2023-02-05T04:06:42.267Z,33.90
2023-02-05T04:09:10.956Z,36.07
2023-02-05T04:11:38.496Z,30.97
2023-02-05T04:14:05.012Z,35.43
2023-02-05T04:16:31.506Z,35.73
2023-02-05T04:18:57.908Z,42.50
2023-02-05T04:21:24.299Z,33.30
2023-02-05T04:23:50.789Z,35.47
2023-02-05T04:26:17.246Z,29.23
2023-02-05T04:28:43.809Z,33.70
2023-02-05T04:31:15.356Z,40.50
2023-02-05T04:33:42.252Z,41.53
2023-02-05T04:36:09.277Z,33.10
2023-02-05T04:38:35.674Z,33.63
2023-02-05T04:41:02.073Z,32.43
2023-02-05T04:43:28.719Z,36.53
2023-02-05T04:45:55.239Z,31.77
2023-02-05T04:48:21.778Z,36.97
2023-02-05T04:50:48.284Z,35.60
2023-02-05T04:53:14.758Z,40.77
2023-02-05T04:55:41.200Z,36.07
2023-02-05T04:58:07.809Z,32.00
2023-02-05T05:00:34.197Z,36.27
2023-02-05T05:03:01.484Z,35.27
2023-02-05T05:05:28.005Z,30.57
2023-02-05T05:07:54.441Z,32.17
2023-02-05T05:10:20.809Z,37.47
2023-02-05T05:12:47.175Z,33.37
2023-02-05T05:15:13.675Z,36.20
2023-02-05T05:17:40.061Z,29.87
2023-02-05T05:20:06.747Z,37.90
2023-02-05T05:22:33.629Z,31.63
2023-02-05T05:25:00.142Z,34.23
2023-02-05T05:27:26.574Z,32.63
2023-02-05T05:29:53.068Z,35.13
2023-02-05T05:32:19.546Z,28.47
2023-02-05T05:34:45.953Z,31.10
2023-02-05T05:37:12.446Z,32.00
2023-02-05T05:39:57.440Z,32.87
2023-02-05T05:42:42.739Z,32.17
2023-02-05T05:45:10.563Z,39.60
2023-02-05T05:47:37.051Z,32.30
2023-02-05T05:50:03.910Z,31.13
2023-02-05T05:52:32.380Z,38.87
2023-02-05T05:54:59.148Z,30.80
2023-02-05T05:57:26.204Z,43.33
2023-02-05T05:59:52.653Z,29.53
2023-02-05T06:02:19.177Z,37.93
2023-02-05T06:04:45.976Z,30.23
2023-02-05T06:07:12.399Z,34.53
2023-02-05T06:09:38.796Z,35.93
2023-02-05T06:12:05.392Z,31.73
2023-02-05T06:14:31.939Z,30.90
2023-02-05T06:16:58.425Z,31.77
2023-02-05T06:19:25.084Z,32.60
2023-02-05T06:21:51.573Z,40.20
2023-02-05T06:24:18.009Z,32.90
2023-02-05T06:26:44.630Z,34.43
2023-02-05T06:29:11.102Z,35.90
2023-02-05T06:31:37.545Z,32.63
2023-02-05T06:34:04.117Z,35.10
2023-02-05T06:36:30.515Z,38.43
2023-02-05T06:38:56.944Z,35.00
2023-02-05T06:41:23.429Z,29.97
2023-02-05T06:43:49.892Z,32.43
2023-02-05T06:46:16.395Z,33.27
2023-02-05T06:48:42.905Z,32.73
2023-02-05T06:51:09.309Z,31.10
2023-02-05T06:53:35.686Z,34.40
2023-02-05T06:56:02.152Z,34.60
2023-02-05T06:58:28.592Z,32.37
2023-02-05T07:00:55.034Z,31.77
2023-02-05T07:03:21.622Z,35.40
2023-02-05T07:05:47.957Z,34.20
2023-02-05T07:08:14.330Z,31.53
2023-02-05T07:10:40.792Z,32.27
2023-02-05T07:13:07.218Z,32.03
2023-02-05T07:15:36.911Z,31.33
2023-02-05T07:18:05.116Z,33.77
2023-02-05T07:20:32.230Z,36.13
2023-02-05T07:22:58.638Z,29.20
2023-02-05T07:25:25.270Z,37.93
2023-02-05T07:27:51.684Z,30.63
2023-02-05T07:30:18.376Z,29.83
2023-02-05T07:32:44.930Z,37.33
2023-02-05T07:35:11.329Z,37.20
2023-02-05T07:37:39.344Z,41.63
2023-02-05T07:40:06.358Z,47.57
2023-02-05T07:42:32.711Z,53.63
2023-02-05T07:44:59.084Z,50.70
2023-02-05T07:47:25.503Z,50.50
2023-02-05T07:49:51.883Z,46.73
2023-02-05T07:52:18.348Z,51.40
2023-02-05T07:54:44.818Z,49.03
2023-02-05T07:57:11.241Z,50.23
2023-02-05T07:59:37.826Z,48.23
2023-02-05T08:02:04.456Z,46.50
2023-02-05T08:04:31.096Z,46.03
2023-02-05T08:06:57.615Z,51.53
2023-02-05T08:09:24.054Z,42.70
2023-02-05T08:11:50.444Z,41.97
2023-02-05T08:14:16.844Z,40.53
2023-02-05T08:16:43.280Z,39.83
2023-02-05T08:19:15.626Z,41.23
2023-02-05T08:21:43.250Z,38.57
2023-02-05T08:24:10.445Z,38.23
2023-02-05T08:26:36.874Z,40.30
2023-02-05T08:29:03.491Z,37.60
2023-02-05T08:31:30.025Z,36.47
2023-02-05T08:33:57.770Z,39.93
2023-02-05T08:36:24.340Z,34.40
2023-02-05T08:38:50.717Z,30.33
2023-02-05T08:41:17.636Z,25.33
2023-02-05T08:43:47.107Z,26.20
2023-02-05T08:46:15.390Z,25.43
2023-02-05T08:48:42.175Z,27.03
2023-02-05T08:51:13.129Z,23.83
2023-02-05T08:53:40.506Z,25.63
2023-02-05T08:56:10.508Z,25.80
2023-02-05T08:58:38.568Z,27.37
2023-02-05T09:01:08.833Z,24.63
2023-02-05T09:03:35.390Z,25.83
2023-02-05T09:06:05.852Z,24.40
2023-02-05T09:08:32.396Z,21.83
2023-02-05T09:10:58.782Z,23.67
2023-02-05T09:13:25.860Z,20.80
2023-02-05T09:15:52.396Z,15.77
2023-02-05T09:18:18.924Z,17.50
2023-02-05T09:20:47.987Z,14.40
2023-02-05T09:23:16.676Z,12.60
2023-02-05T09:25:43.354Z,13.03
2023-02-05T09:28:11.965Z,9.83
2023-02-05T09:30:41.010Z,10.43
2023-02-05T09:33:08.665Z,9.93
2023-02-05T09:35:36.070Z,7.27
2023-02-05T09:38:03.406Z,6.57
2023-02-05T09:40:35.927Z,5.83
2023-02-05T09:43:21.483Z,5.47
2023-02-05T09:46:03.134Z,5.37
2023-02-05T09:48:49.694Z,3.37
2023-02-05T09:51:19.247Z,3.80
2023-02-05T09:53:52.839Z,2.40
2023-02-05T09:56:20.048Z,4.37
2023-02-05T09:58:49.733Z,3.40
2023-02-05T10:01:39.251Z,6.10
2023-02-05T10:04:08.846Z,7.63
2023-02-05T10:07:04.753Z,3.23
2023-02-05T10:09:59.813Z,6.03
2023-02-05T10:13:08.492Z,8.47
2023-02-05T10:15:53.489Z,7.03
2023-02-05T10:18:49.243Z,5.60
2023-02-05T10:21:58.414Z,5.50
2023-02-05T10:24:42.136Z,5.20
2023-02-05T10:27:24.870Z,5.17
2023-02-05T10:30:24.705Z,3.77
2023-02-05T10:33:00.212Z,7.60
2023-02-05T10:35:37.108Z,5.10
2023-02-05T10:38:13.537Z,5.07
2023-02-05T10:40:46.605Z,7.53
2023-02-05T10:43:15.972Z,5.03
2023-02-05T10:45:42.441Z,7.07
2023-02-05T10:48:33.303Z,10.13
2023-02-05T10:51:13.974Z,9.00
2023-02-05T10:53:40.994Z,10.03
2023-02-05T10:56:08.978Z,6.03
2023-02-05T10:58:51.765Z,8.73
2023-02-05T11:01:25.155Z,9.60
2023-02-05T11:04:09.887Z,11.13
2023-02-05T11:06:49.298Z,11.00
2023-02-05T11:09:24.617Z,7.53
2023-02-05T11:11:56.672Z,8.67
2023-02-05T11:14:31.912Z,8.77
2023-02-05T11:17:07.454Z,9.63
2023-02-05T11:19:34.043Z,8.77
2023-02-05T11:22:03.474Z,8.33
2023-02-05T11:24:41.351Z,8.23
2023-02-05T11:27:26.944Z,8.23
2023-02-05T11:29:55.658Z,9.10
2023-02-05T11:32:32.536Z,8.77
2023-02-05T11:35:16.259Z,8.20
2023-02-05T11:37:43.263Z,6.83
2023-02-05T11:40:21.535Z,5.37
2023-02-05T11:42:55.595Z,14.07
2023-02-05T11:45:23.167Z,7.23
2023-02-05T11:47:49.580Z,7.97
2023-02-05T11:50:24.604Z,7.37
2023-02-05T11:52:52.732Z,8.97
2023-02-05T11:55:31.948Z,13.43
2023-02-05T11:58:31.390Z,5.97
2023-02-05T12:01:05.751Z,13.77
2023-02-05T12:03:34.508Z,10.83
2023-02-05T12:06:28.916Z,7.27
2023-02-05T12:08:55.611Z,11.93
2023-02-05T12:14:39.787Z,7.47
2023-02-05T12:17:18.307Z,10.87
2023-02-05T12:20:26.469Z,11.00
2023-02-05T12:23:06.898Z,12.73
2023-02-05T12:25:55.098Z,12.90
2023-02-05T12:28:36.861Z,13.93
2023-02-05T12:31:27.236Z,15.07
2023-02-05T12:34:16.813Z,13.10
2023-02-05T12:37:01.863Z,12.03
2023-02-05T12:39:53.441Z,14.03
2023-02-05T12:42:32.336Z,9.20
2023-02-05T12:45:17.626Z,8.83
2023-02-05T12:47:57.099Z,12.70
2023-02-05T12:50:35.468Z,14.77
2023-02-05T12:53:12.265Z,12.40
2023-02-05T12:56:21.252Z,9.43
2023-02-05T12:58:57.261Z,12.57
2023-02-05T13:01:53.240Z,10.47
2023-02-05T13:04:36.305Z,13.83
2023-02-05T13:07:14.936Z,8.57
2023-02-05T13:09:49.863Z,7.53
2023-02-05T13:12:20.122Z,6.10
2023-02-05T13:15:02.642Z,9.33
2023-02-05T13:17:34.105Z,4.90
2023-02-05T13:20:04.277Z,5.77
2023-02-05T13:22:56.298Z,7.00
2023-02-05T13:25:54.597Z,5.37
2023-02-05T13:28:42.964Z,5.83
2023-02-05T13:31:15.249Z,2.93
2023-02-05T13:33:43.543Z,3.20
2023-02-05T13:36:29.950Z,5.33
2023-02-05T13:39:41.220Z,7.27
2023-02-05T13:42:45.048Z,6.03
2023-02-05T13:45:23.676Z,4.03
2023-02-05T13:47:53.073Z,4.80
2023-02-05T13:50:47.407Z,2.90
2023-02-05T13:53:43.955Z,3.47
2023-02-05T13:56:31.973Z,3.37
2023-02-05T13:59:02.670Z,3.13
2023-02-05T14:01:36.115Z,5.27
2023-02-05T14:04:07.781Z,3.13
2023-02-05T14:06:39.750Z,3.23
2023-02-05T14:09:23.563Z,3.67
2023-02-05T14:11:57.025Z,2.93
2023-02-05T14:14:35.626Z,3.10
2023-02-05T14:17:33.171Z,5.10
2023-02-05T14:20:01.202Z,2.47
2023-02-05T14:22:42.103Z,3.63
2023-02-05T14:25:38.235Z,3.03
2023-02-05T14:28:16.842Z,3.90
2023-02-05T14:30:52.088Z,5.30
2023-02-05T14:33:27.722Z,5.33
2023-02-05T14:36:15.009Z,9.17
2023-02-05T14:39:03.931Z,4.63
2023-02-05T14:41:39.642Z,7.57
2023-02-05T14:44:17.790Z,6.17
2023-02-05T14:47:13.675Z,5.47
2023-02-05T14:49:43.745Z,8.93
2023-02-05T14:52:16.112Z,9.53
2023-02-05T14:54:47.587Z,6.40
2023-02-05T14:57:26.582Z,7.67
2023-02-05T14:59:58.786Z,7.10
2023-02-05T15:02:49.757Z,5.27
2023-02-05T15:05:22.068Z,5.70
2023-02-05T15:07:52.986Z,9.47
2023-02-05T15:10:27.142Z,6.97
2023-02-05T15:13:12.510Z,9.57
2023-02-05T15:15:39.127Z,10.83
2023-02-05T15:18:23.998Z,4.63
2023-02-05T15:20:53.233Z,5.97
2023-02-05T15:23:23.463Z,8.17
2023-02-05T15:25:58.140Z,4.27
2023-02-05T15:28:32.334Z,11.03
2023-02-05T15:31:08.385Z,8.63
2023-02-05T15:34:00.309Z,5.43
2023-02-05T15:36:52.396Z,6.13
2023-02-05T15:39:30.245Z,6.93
2023-02-05T15:42:00.123Z,5.67
2023-02-05T15:44:35.164Z,8.40
2023-02-05T15:47:05.308Z,10.23
2023-02-05T15:49:37.460Z,7.97
2023-02-05T15:52:05.680Z,8.80
2023-02-05T15:54:35.522Z,8.53
2023-02-05T15:57:05.324Z,11.53
2023-02-05T15:59:33.180Z,8.80
2023-02-05T16:02:04.059Z,9.20
2023-02-05T16:04:30.523Z,9.07
2023-02-05T16:06:57.735Z,8.70
2023-02-05T16:09:26.500Z,6.97
2023-02-05T16:11:53.141Z,8.53
2023-02-05T16:14:22.585Z,11.93
2023-02-05T16:17:02.440Z,8.20
2023-02-05T16:19:35.024Z,9.23
2023-02-05T16:22:22.748Z,11.33
2023-02-05T16:24:52.720Z,9.10
2023-02-05T16:27:35.948Z,12.97
2023-02-05T16:30:07.960Z,12.40
2023-02-05T16:32:43.990Z,11.60
2023-02-05T16:35:27.816Z,6.13
2023-02-05T16:37:55.165Z,12.47
2023-02-05T16:40:32.854Z,15.47
2023-02-05T16:42:59.629Z,10.47
2023-02-05T16:45:28.360Z,13.70
2023-02-05T16:48:18.744Z,17.90
2023-02-05T16:50:45.122Z,12.60
2023-02-05T16:53:21.048Z,18.37
2023-02-05T16:55:48.787Z,17.70
2023-02-05T16:58:23.105Z,15.10
2023-02-05T17:01:07.892Z,16.03
2023-02-05T17:03:38.698Z,11.57
2023-02-05T17:06:12.894Z,15.27
2023-02-05T17:08:40.327Z,13.90
2023-02-05T17:11:27.867Z,15.60
2023-02-05T17:14:28.448Z,15.00
2023-02-05T17:17:00.857Z,9.20
2023-02-05T17:19:29.779Z,13.13
2023-02-05T17:22:14.484Z,10.13
2023-02-05T17:24:44.268Z,10.30
2023-02-05T17:27:17.307Z,15.00
2023-02-05T17:29:44.166Z,12.27
2023-02-05T17:32:16.881Z,11.23
2023-02-05T17:34:46.903Z,16.73
2023-02-05T17:37:14.299Z,15.40
2023-02-05T17:39:41.312Z,14.37
2023-02-05T17:42:19.768Z,13.57
2023-02-05T17:44:46.163Z,12.20
2023-02-05T17:47:12.981Z,13.10
2023-02-05T17:49:39.971Z,20.93
2023-02-05T17:52:06.391Z,14.90
2023-02-05T17:54:32.801Z,13.90
2023-02-05T17:57:14.103Z,16.57
2023-02-05T17:59:42.933Z,18.13
2023-02-05T18:02:09.577Z,18.00
2023-02-05T18:04:36.053Z,26.13
2023-02-05T18:07:02.620Z,24.47
2023-02-05T18:09:29.088Z,16.17
2023-02-05T18:11:55.543Z,17.90
2023-02-05T18:14:22.075Z,21.83
2023-02-05T18:16:48.589Z,15.03
2023-02-05T18:19:15.116Z,13.77
2023-02-05T18:21:41.674Z,17.73
2023-02-05T18:24:08.204Z,20.77
2023-02-05T18:26:34.741Z,15.83
2023-02-05T18:29:01.216Z,20.40
2023-02-05T18:31:28.014Z,18.13
2023-02-05T18:33:54.439Z,14.90
2023-02-05T18:36:21.285Z,15.07
2023-02-05T18:38:47.968Z,17.03
2023-02-05T18:41:17.271Z,15.77
2023-02-05T18:43:44.220Z,19.03
2023-02-05T18:46:16.031Z,21.53
2023-02-05T18:48:45.605Z,14.83
2023-02-05T18:51:15.405Z,19.67
2023-02-05T18:53:43.176Z,18.77
2023-02-05T18:56:14.000Z,25.17
2023-02-05T18:58:41.751Z,18.17
2023-02-05T19:01:12.809Z,20.17
2023-02-05T19:03:41.310Z,13.33
2023-02-05T19:06:17.365Z,24.63
2023-02-05T19:08:44.056Z,16.77
2023-02-05T19:11:15.996Z,19.00
2023-02-05T19:13:42.628Z,17.13
2023-02-05T19:16:15.071Z,17.37
2023-02-05T19:18:43.901Z,21.30
2023-02-05T19:21:13.837Z,18.17
2023-02-05T19:23:41.268Z,17.63
2023-02-05T19:26:14.327Z,16.47
2023-02-05T19:28:41.635Z,23.43
2023-02-05T19:31:11.483Z,18.73
2023-02-05T19:33:38.475Z,16.00
2023-02-05T19:36:07.402Z,18.93
2023-02-05T19:38:41.268Z,24.97
2023-02-05T19:41:09.829Z,19.77
2023-02-05T19:43:36.378Z,16.07
2023-02-05T19:46:04.751Z,16.97
2023-02-05T19:48:31.433Z,19.47
2023-02-05T19:51:09.127Z,20.60
2023-02-05T19:53:37.867Z,21.00
2023-02-05T19:56:07.131Z,25.83
2023-02-05T19:58:34.702Z,18.60
2023-02-05T20:01:01.258Z,23.23
2023-02-05T20:03:28.849Z,23.40
2023-02-05T20:05:55.209Z,19.57
2023-02-05T20:08:21.667Z,17.50
2023-02-05T20:10:57.198Z,17.10
2023-02-05T20:13:27.793Z,17.87
2023-02-05T20:15:54.559Z,17.70
2023-02-05T20:18:21.869Z,25.17
2023-02-05T20:20:48.807Z,32.87
2023-02-05T20:23:15.391Z,16.03
2023-02-05T20:25:41.757Z,18.33
2023-02-05T20:28:08.336Z,31.73
2023-02-05T20:30:53.301Z,19.67
2023-02-05T20:33:19.890Z,17.83
2023-02-05T20:35:46.196Z,20.13
2023-02-05T20:38:12.561Z,23.43
2023-02-05T20:40:39.040Z,15.57
2023-02-05T20:43:09.062Z,12.93
2023-02-05T20:45:35.466Z,15.77
2023-02-05T20:48:02.057Z,20.03
2023-02-05T20:50:28.476Z,17.07
2023-02-05T20:52:54.783Z,17.53
2023-02-05T20:55:21.184Z,21.13
2023-02-05T20:57:47.537Z,17.87
2023-02-05T21:00:14.667Z,15.40
2023-02-05T21:02:41.147Z,14.70
2023-02-05T21:05:07.750Z,19.10
2023-02-05T21:07:34.938Z,17.17
2023-02-05T21:10:02.522Z,19.37
2023-02-05T21:12:31.050Z,11.80
2023-02-05T21:14:57.636Z,16.33
2023-02-05T21:17:23.992Z,13.80
2023-02-05T21:19:50.368Z,12.67
2023-02-05T21:22:16.810Z,14.37
2023-02-05T21:24:43.352Z,14.07
2023-02-05T21:27:09.751Z,19.40
2023-02-05T21:29:36.144Z,21.47
2023-02-05T21:32:02.792Z,22.40
2023-02-05T21:34:29.701Z,15.27
2023-02-05T21:36:56.516Z,10.67
2023-02-05T21:39:23.528Z,12.93
2023-02-05T21:41:53.918Z,9.97
2023-02-05T21:44:20.414Z,10.63
2023-02-05T21:46:46.906Z,14.37
2023-02-05T21:49:13.549Z,12.00
2023-02-05T21:51:42.246Z,15.50
2023-02-05T21:54:09.884Z,11.97
2023-02-05T21:56:43.266Z,15.77
2023-02-05T21:59:11.320Z,14.37
2023-02-05T22:01:38.247Z,11.33
2023-02-05T22:04:16.642Z,16.33
2023-02-05T22:06:43.445Z,17.87
2023-02-05T22:09:12.425Z,15.53
2023-02-05T22:11:42.623Z,19.13
2023-02-05T22:14:09.704Z,17.27
2023-02-05T22:16:37.149Z,15.13
2023-02-05T22:19:04.915Z,21.30
2023-02-05T22:21:37.449Z,16.60
2023-02-05T22:24:05.477Z,12.63
2023-02-05T22:26:35.906Z,20.40
2023-02-05T22:29:05.313Z,15.47
2023-02-05T22:31:32.609Z,14.83
2023-02-05T22:33:59.532Z,16.97
2023-02-05T22:36:28.469Z,19.97
2023-02-05T22:38:55.635Z,20.10
2023-02-05T22:41:25.062Z,20.13
2023-02-05T22:43:53.228Z,13.47
2023-02-05T22:46:23.089Z,17.97
2023-02-05T22:48:50.931Z,21.53
2023-02-05T22:51:23.416Z,11.23
2023-02-05T22:53:51.580Z,16.03
2023-02-05T22:56:18.699Z,18.87
2023-02-05T22:58:46.802Z,17.93
2023-02-05T23:01:16.087Z,15.10
2023-02-05T23:03:43.357Z,11.57
2023-02-05T23:06:12.484Z,20.07
2023-02-05T23:08:38.898Z,21.23
2023-02-05T23:11:11.205Z,18.90
2023-02-05T23:13:37.663Z,19.10
2023-02-05T23:16:32.531Z,14.20
2023-02-05T23:19:02.860Z,15.10
2023-02-05T23:21:31.970Z,14.37
2023-02-05T23:23:58.576Z,14.03
2023-02-05T23:26:28.002Z,14.43
2023-02-05T23:28:55.569Z,22.83
2023-02-05T23:31:23.961Z,21.80
2023-02-05T23:33:51.058Z,9.67
2023-02-05T23:36:18.067Z,14.37
2023-02-05T23:38:44.582Z,12.67
2023-02-05T23:41:12.169Z,13.00
2023-02-05T23:43:39.060Z,17.07
2023-02-05T23:46:07.095Z,12.40
2023-02-05T23:48:34.200Z,15.67
2023-02-05T23:51:01.034Z,22.60
2023-02-05T23:53:27.592Z,20.60
2023-02-05T23:55:55.648Z,17.00
2023-02-05T23:58:27.788Z,12.97
